KVYS/VYS METAR and TAF weather

Enter ICAO airport designator
Station Type Date Time Source
KVYS METAR 2022/06/28 15:35 UTC NOAA

KVYS 281535Z AUTO 23004KT 10SM CLR 26/15 A3024 RMK AO2 T02600150


Station Type Date Time Source
KVYS Decoded METAR 2022/06/28 15:35 UTC NOAA

Peru, Illinois Valley Regional-Walter A Duncan Field Airport, IL, United States (KVYS) 41-21-07N 089-09-11W
Jun 28, 2022 - 11:35 AM EDT / 2022.06.28 1535 UTC
Wind: from the SW (230 degrees) at 5 MPH (4 KT):0
Visibility: 10 mile(s):0
Sky conditions: clear
Temperature: 78.8 F (26.0 C)
Dew Point: 59.0 F (15.0 C)
Relative Humidity: 50%
Pressure (altimeter): 30.24 in. Hg (1024 hPa)
ob: KVYS 281535Z AUTO 23004KT 10SM CLR 26/15 A3024 RMK AO2 T02600150
cycle: 15

Station Type Date Time Source
KVYS TAF UTC NOAA

Error!

Example: see airport list